sensor_id;sensor_type;location;lat;lon;timestamp;pressure;altitude;pressure_sealevel;temperature;humidity
61394;BME280;48555;50.952;-0.120;2023-09-12T00:00:08;100839.81;;;20.76;79.68
61394;BME280;48555;50.952;-0.120;2023-09-12T00:02:34;100837.16;;;20.76;79.92
61394;BME280;48555;50.952;-0.120;2023-09-12T00:04:59;100842.47;;;20.76;80.23
61394;BME280;48555;50.952;-0.120;2023-09-12T00:07:25;100842.94;;;20.79;80.27
61394;BME280;48555;50.952;-0.120;2023-09-12T00:09:50;100838.28;;;20.81;80.14
61394;BME280;48555;50.952;-0.120;2023-09-12T00:12:15;100841.59;;;20.83;80.01
61394;BME280;48555;50.952;-0.120;2023-09-12T00:14:41;100837.94;;;20.84;80.21
61394;BME280;48555;50.952;-0.120;2023-09-12T00:17:06;100832.47;;;20.86;80.32
61394;BME280;48555;50.952;-0.120;2023-09-12T00:19:32;100843.72;;;20.88;80.08
61394;BME280;48555;50.952;-0.120;2023-09-12T00:21:58;100830.63;;;20.86;80.05
61394;BME280;48555;50.952;-0.120;2023-09-12T00:24:23;100832.75;;;20.91;80.05
61394;BME280;48555;50.952;-0.120;2023-09-12T00:26:48;100842.19;;;20.94;79.93
61394;BME280;48555;50.952;-0.120;2023-09-12T00:29:13;100841.22;;;20.95;79.91
61394;BME280;48555;50.952;-0.120;2023-09-12T00:31:39;100836.88;;;20.94;80.32
61394;BME280;48555;50.952;-0.120;2023-09-12T00:34:04;100824.97;;;20.90;80.30
61394;BME280;48555;50.952;-0.120;2023-09-12T00:36:29;100832.41;;;20.94;80.31
61394;BME280;48555;50.952;-0.120;2023-09-12T00:38:55;100821.84;;;20.86;80.29
61394;BME280;48555;50.952;-0.120;2023-09-12T00:41:20;100828.91;;;20.94;80.26
61394;BME280;48555;50.952;-0.120;2023-09-12T00:43:45;100834.72;;;20.97;79.98
61394;BME280;48555;50.952;-0.120;2023-09-12T00:46:18;100826.91;;;20.96;80.11
61394;BME280;48555;50.952;-0.120;2023-09-12T00:48:43;100831.41;;;20.95;79.83
61394;BME280;48555;50.952;-0.120;2023-09-12T00:51:10;100818.81;;;20.89;79.99
61394;BME280;48555;50.952;-0.120;2023-09-12T00:53:35;100811.00;;;20.87;80.29
61394;BME280;48555;50.952;-0.120;2023-09-12T00:56:01;100811.56;;;20.83;80.26
61394;BME280;48555;50.952;-0.120;2023-09-12T00:58:27;100818.69;;;20.82;80.29
61394;BME280;48555;50.952;-0.120;2023-09-12T01:00:53;100821.34;;;20.82;80.56
61394;BME280;48555;50.952;-0.120;2023-09-12T01:03:19;100812.53;;;20.82;80.39
61394;BME280;48555;50.952;-0.120;2023-09-12T01:05:44;100802.91;;;20.81;80.72
61394;BME280;48555;50.952;-0.120;2023-09-12T01:08:11;100795.97;;;20.80;80.55
61394;BME280;48555;50.952;-0.120;2023-09-12T01:10:36;100796.31;;;20.77;80.89
61394;BME280;48555;50.952;-0.120;2023-09-12T01:13:02;100785.06;;;20.67;80.96
61394;BME280;48555;50.952;-0.120;2023-09-12T01:15:28;100796.66;;;20.74;81.06
61394;BME280;48555;50.952;-0.120;2023-09-12T01:17:59;100786.91;;;20.66;80.94
61394;BME280;48555;50.952;-0.120;2023-09-12T01:20:31;100782.94;;;20.62;81.50
61394;BME280;48555;50.952;-0.120;2023-09-12T01:23:08;100796.69;;;20.66;81.41
61394;BME280;48555;50.952;-0.120;2023-09-12T01:28:34;100795.69;;;20.67;81.57
61394;BME280;48555;50.952;-0.120;2023-09-12T01:31:01;100795.38;;;20.61;81.74
61394;BME280;48555;50.952;-0.120;2023-09-12T01:33:28;100796.22;;;20.62;81.72
61394;BME280;48555;50.952;-0.120;2023-09-12T01:35:54;100783.28;;;20.59;82.16
61394;BME280;48555;50.952;-0.120;2023-09-12T01:38:20;100797.22;;;20.61;82.01
61394;BME280;48555;50.952;-0.120;2023-09-12T01:40:53;100794.41;;;20.62;82.19
61394;BME280;48555;50.952;-0.120;2023-09-12T01:43:21;100799.16;;;20.67;81.96
61394;BME280;48555;50.952;-0.120;2023-09-12T01:45:49;100797.69;;;20.64;82.10
61394;BME280;48555;50.952;-0.120;2023-09-12T01:48:22;100814.41;;;20.73;81.85
61394;BME280;48555;50.952;-0.120;2023-09-12T01:50:48;100810.56;;;20.76;82.05
61394;BME280;48555;50.952;-0.120;2023-09-12T01:53:14;100810.41;;;20.77;81.81
61394;BME280;48555;50.952;-0.120;2023-09-12T01:55:42;100797.13;;;20.77;82.15
61394;BME280;48555;50.952;-0.120;2023-09-12T01:58:07;100803.44;;;20.76;82.23
61394;BME280;48555;50.952;-0.120;2023-09-12T02:00:33;100800.59;;;20.78;82.15
61394;BME280;48555;50.952;-0.120;2023-09-12T02:02:59;100802.91;;;20.81;82.17
61394;BME280;48555;50.952;-0.120;2023-09-12T02:05:24;100781.88;;;20.71;82.23
61394;BME280;48555;50.952;-0.120;2023-09-12T02:07:50;100796.78;;;20.80;82.31
61394;BME280;48555;50.952;-0.120;2023-09-12T02:10:15;100799.44;;;20.80;82.46
61394;BME280;48555;50.952;-0.120;2023-09-12T02:12:41;100801.28;;;20.80;82.35
61394;BME280;48555;50.952;-0.120;2023-09-12T02:15:07;100806.59;;;20.80;82.64
61394;BME280;48555;50.952;-0.120;2023-09-12T02:17:32;100806.75;;;20.78;82.70
61394;BME280;48555;50.952;-0.120;2023-09-12T02:19:58;100811.41;;;20.76;82.79
61394;BME280;48555;50.952;-0.120;2023-09-12T02:22:23;100808.13;;;20.74;82.66
61394;BME280;48555;50.952;-0.120;2023-09-12T02:24:49;100817.72;;;20.75;82.76
61394;BME280;48555;50.952;-0.120;2023-09-12T02:27:15;100823.03;;;20.75;82.93
61394;BME280;48555;50.952;-0.120;2023-09-12T02:29:41;100817.91;;;20.74;82.72
61394;BME280;48555;50.952;-0.120;2023-09-12T02:32:07;100824.06;;;20.74;82.83
61394;BME280;48555;50.952;-0.120;2023-09-12T02:34:32;100821.22;;;20.76;82.50
61394;BME280;48555;50.952;-0.120;2023-09-12T02:36:58;100820.38;;;20.75;82.82
61394;BME280;48555;50.952;-0.120;2023-09-12T02:39:23;100816.44;;;20.71;82.62
61394;BME280;48555;50.952;-0.120;2023-09-12T02:41:48;100818.28;;;20.71;82.65
61394;BME280;48555;50.952;-0.120;2023-09-12T02:44:14;100810.97;;;20.64;82.56
61394;BME280;48555;50.952;-0.120;2023-09-12T02:46:39;100822.25;;;20.67;82.70
61394;BME280;48555;50.952;-0.120;2023-09-12T02:49:04;100826.91;;;20.64;82.88
61394;BME280;48555;50.952;-0.120;2023-09-12T02:51:30;100814.84;;;20.54;82.71
61394;BME280;48555;50.952;-0.120;2023-09-12T02:53:56;100817.81;;;20.59;82.70
61394;BME280;48555;50.952;-0.120;2023-09-12T02:56:21;100815.34;;;20.57;82.53
61394;BME280;48555;50.952;-0.120;2023-09-12T02:58:47;100817.81;;;20.59;82.37
61394;BME280;48555;50.952;-0.120;2023-09-12T03:01:16;100821.66;;;20.56;82.38
61394;BME280;48555;50.952;-0.120;2023-09-12T03:03:42;100819.00;;;20.56;82.47
61394;BME280;48555;50.952;-0.120;2023-09-12T03:06:07;100814.03;;;20.53;82.38
61394;BME280;48555;50.952;-0.120;2023-09-12T03:08:32;100822.00;;;20.53;82.23
61394;BME280;48555;50.952;-0.120;2023-09-12T03:10:58;100810.84;;;20.50;82.42
61394;BME280;48555;50.952;-0.120;2023-09-12T03:13:26;100815.34;;;20.49;82.54
61394;BME280;48555;50.952;-0.120;2023-09-12T03:15:52;100816.00;;;20.51;82.70
61394;BME280;48555;50.952;-0.120;2023-09-12T03:18:18;100810.22;;;20.48;82.73
61394;BME280;48555;50.952;-0.120;2023-09-12T03:20:43;100804.38;;;20.44;82.69
61394;BME280;48555;50.952;-0.120;2023-09-12T03:23:09;100813.03;;;20.46;82.51
61394;BME280;48555;50.952;-0.120;2023-09-12T03:25:38;100807.72;;;20.46;82.80
61394;BME280;48555;50.952;-0.120;2023-09-12T03:28:04;100803.09;;;20.40;83.06
61394;BME280;48555;50.952;-0.120;2023-09-12T03:30:32;100803.56;;;20.43;82.98
61394;BME280;48555;50.952;-0.120;2023-09-12T03:32:57;100805.25;;;20.45;83.28
61394;BME280;48555;50.952;-0.120;2023-09-12T03:35:23;100804.22;;;20.46;83.25
61394;BME280;48555;50.952;-0.120;2023-09-12T03:37:48;100802.41;;;20.46;83.42
61394;BME280;48555;50.952;-0.120;2023-09-12T03:40:13;100802.88;;;20.50;83.36
61394;BME280;48555;50.952;-0.120;2023-09-12T03:42:39;100795.91;;;20.49;83.12
61394;BME280;48555;50.952;-0.120;2023-09-12T03:45:05;100781.16;;;20.46;83.27
61394;BME280;48555;50.952;-0.120;2023-09-12T03:47:30;100788.44;;;20.52;83.34
61394;BME280;48555;50.952;-0.120;2023-09-12T03:49:55;100792.25;;;20.50;83.61
61394;BME280;48555;50.952;-0.120;2023-09-12T03:52:21;100798.56;;;20.49;83.84
61394;BME280;48555;50.952;-0.120;2023-09-12T03:54:46;100792.44;;;20.48;83.86
61394;BME280;48555;50.952;-0.120;2023-09-12T03:57:12;100791.94;;;20.53;83.73
61394;BME280;48555;50.952;-0.120;2023-09-12T03:59:37;100799.91;;;20.53;83.84
61394;BME280;48555;50.952;-0.120;2023-09-12T04:02:03;100796.06;;;20.55;83.84
61394;BME280;48555;50.952;-0.120;2023-09-12T04:04:28;100792.59;;;20.55;83.88
61394;BME280;48555;50.952;-0.120;2023-09-12T04:06:54;100789.78;;;20.56;nan
61394;BME280;48555;50.952;-0.120;2023-09-12T04:09:20;100784.63;;;20.55;84.16
61394;BME280;48555;50.952;-0.120;2023-09-12T04:11:45;100786.47;;;20.54;84.31
61394;BME280;48555;50.952;-0.120;2023-09-12T04:14:11;100779.31;;;20.55;84.35
61394;BME280;48555;50.952;-0.120;2023-09-12T04:16:36;100779.63;;;20.52;84.28
61394;BME280;48555;50.952;-0.120;2023-09-12T04:19:02;100779.97;;;20.57;84.29
61394;BME280;48555;50.952;-0.120;2023-09-12T04:21:28;100773.19;;;20.54;84.48
61394;BME280;48555;50.952;-0.120;2023-09-12T04:23:53;100772.66;;;20.59;84.34
61394;BME280;48555;50.952;-0.120;2023-09-12T04:26:19;100772.00;;;20.57;84.38
61394;BME280;48555;50.952;-0.120;2023-09-12T04:28:46;100778.31;;;20.56;84.18
61394;BME280;48555;50.952;-0.120;2023-09-12T04:31:12;100778.13;;;20.57;84.37
61394;BME280;48555;50.952;-0.120;2023-09-12T04:33:37;100778.97;;;20.58;84.52
61394;BME280;48555;50.952;-0.120;2023-09-12T04:36:03;100759.06;;;20.46;84.38
61394;BME280;48555;50.952;-0.120;2023-09-12T04:38:29;100768.69;;;20.55;84.52
61394;BME280;48555;50.952;-0.120;2023-09-12T04:40:55;100780.97;;;20.56;84.40
61394;BME280;48555;50.952;-0.120;2023-09-12T04:43:21;100776.84;;;20.53;84.46
61394;BME280;48555;50.952;-0.120;2023-09-12T04:45:46;100770.34;;;20.56;84.72
61394;BME280;48555;50.952;-0.120;2023-09-12T04:48:13;100774.00;;;20.55;84.64
61394;BME280;48555;50.952;-0.120;2023-09-12T04:50:42;100773.34;;;20.53;84.61
61394;BME280;48555;50.952;-0.120;2023-09-12T04:53:11;100773.34;;;20.53;84.61
61394;BME280;48555;50.952;-0.120;2023-09-12T04:55:36;100780.47;;;20.52;84.36
61394;BME280;48555;50.952;-0.120;2023-09-12T04:58:01;100779.97;;;20.49;84.53
61394;BME280;48555;50.952;-0.120;2023-09-12T05:00:27;100781.47;;;20.51;84.46
61394;BME280;48555;50.952;-0.120;2023-09-12T05:02:52;100787.13;;;20.56;84.26
61394;BME280;48555;50.952;-0.120;2023-09-12T05:05:18;100786.25;;;20.56;84.30
61394;BME280;48555;50.952;-0.120;2023-09-12T05:07:43;100788.09;;;20.55;84.47
61394;BME280;48555;50.952;-0.120;2023-09-12T05:10:08;100790.94;;;20.54;84.40
61394;BME280;48555;50.952;-0.120;2023-09-12T05:12:34;100786.63;;;20.53;84.41
61394;BME280;48555;50.952;-0.120;2023-09-12T05:14:59;100791.78;;;20.54;84.29
61394;BME280;48555;50.952;-0.120;2023-09-12T05:17:24;100792.44;;;20.56;84.05
61394;BME280;48555;50.952;-0.120;2023-09-12T05:19:50;100793.25;;;20.57;84.28
61394;BME280;48555;50.952;-0.120;2023-09-12T05:22:15;100791.09;;;20.52;84.36
61394;BME280;48555;50.952;-0.120;2023-09-12T05:24:41;100797.91;;;20.55;84.15
61394;BME280;48555;50.952;-0.120;2023-09-12T05:27:06;100805.06;;;20.54;84.44
61394;BME280;48555;50.952;-0.120;2023-09-12T05:29:31;100796.06;;;20.55;84.52
61394;BME280;48555;50.952;-0.120;2023-09-12T05:31:57;100793.09;;;20.50;84.66
61394;BME280;48555;50.952;-0.120;2023-09-12T05:34:22;100795.44;;;20.53;84.60
61394;BME280;48555;50.952;-0.120;2023-09-12T05:36:47;100799.75;;;20.54;84.55
61394;BME280;48555;50.952;-0.120;2023-09-12T05:39:13;100796.25;;;20.54;84.70
61394;BME280;48555;50.952;-0.120;2023-09-12T05:41:39;100791.09;;;20.52;84.80
61394;BME280;48555;50.952;-0.120;2023-09-12T05:44:05;100783.47;;;20.49;84.92
61394;BME280;48555;50.952;-0.120;2023-09-12T05:46:30;100800.06;;;20.51;84.93
61394;BME280;48555;50.952;-0.120;2023-09-12T05:48:55;100794.28;;;20.48;85.18
61394;BME280;48555;50.952;-0.120;2023-09-12T05:51:21;100797.09;;;20.46;85.00
61394;BME280;48555;50.952;-0.120;2023-09-12T05:53:46;100808.19;;;20.50;85.32
61394;BME280;48555;50.952;-0.120;2023-09-12T05:56:11;100803.06;;;20.48;85.08
61394;BME280;48555;50.952;-0.120;2023-09-12T05:58:37;100807.91;;;20.45;85.65
61394;BME280;48555;50.952;-0.120;2023-09-12T06:01:06;100817.16;;;20.49;85.76
61394;BME280;48555;50.952;-0.120;2023-09-12T06:03:32;100812.88;;;20.48;85.87
61394;BME280;48555;50.952;-0.120;2023-09-12T06:05:57;100814.03;;;20.53;85.89
61394;BME280;48555;50.952;-0.120;2023-09-12T06:08:22;100810.84;;;20.50;85.97
61394;BME280;48555;50.952;-0.120;2023-09-12T06:10:48;100819.16;;;20.55;85.94
61394;BME280;48555;50.952;-0.120;2023-09-12T06:13:14;100826.47;;;20.53;86.01
61394;BME280;48555;50.952;-0.120;2023-09-12T06:15:40;100827.44;;;20.52;86.14
61394;BME280;48555;50.952;-0.120;2023-09-12T06:18:06;100829.97;;;20.53;85.98
61394;BME280;48555;50.952;-0.120;2023-09-12T06:20:31;100836.59;;;20.57;86.30
61394;BME280;48555;50.952;-0.120;2023-09-12T06:22:57;100834.94;;;20.56;86.05
61394;BME280;48555;50.952;-0.120;2023-09-12T06:25:23;100825.81;;;20.59;86.17
61394;BME280;48555;50.952;-0.120;2023-09-12T06:27:49;100835.72;;;20.65;86.08
61394;BME280;48555;50.952;-0.120;2023-09-12T06:30:15;100843.81;;;20.72;86.30
61394;BME280;48555;50.952;-0.120;2023-09-12T06:32:40;100847.97;;;20.74;86.36
61394;BME280;48555;50.952;-0.120;2023-09-12T06:35:06;100841.66;;;20.75;86.04
61394;BME280;48555;50.952;-0.120;2023-09-12T06:37:32;100853.06;;;20.84;86.20
61394;BME280;48555;50.952;-0.120;2023-09-12T06:39:57;100843.72;;;20.88;86.01
61394;BME280;48555;50.952;-0.120;2023-09-12T06:42:23;100849.69;;;20.90;85.91
61394;BME280;48555;50.952;-0.120;2023-09-12T06:44:48;100844.84;;;20.94;86.11
61394;BME280;48555;50.952;-0.120;2023-09-12T06:47:14;100853.63;;;21.02;86.07
61394;BME280;48555;50.952;-0.120;2023-09-12T06:49:39;100845.28;;;21.05;85.84
61394;BME280;48555;50.952;-0.120;2023-09-12T06:52:05;100849.53;;;21.15;85.94
61394;BME280;48555;50.952;-0.120;2023-09-12T06:54:30;100851.03;;;21.17;86.03
61394;BME280;48555;50.952;-0.120;2023-09-12T06:56:55;100865.66;;;21.21;85.78
61394;BME280;48555;50.952;-0.120;2023-09-12T06:59:21;100864.28;;;21.25;85.71
61394;BME280;48555;50.952;-0.120;2023-09-12T07:01:46;100863.91;;;21.28;85.52
61394;BME280;48555;50.952;-0.120;2023-09-12T07:04:12;100858.59;;;21.28;85.55
61394;BME280;48555;50.952;-0.120;2023-09-12T07:06:37;100858.91;;;21.33;85.31
61394;BME280;48555;50.952;-0.120;2023-09-12T07:09:02;100868.53;;;21.35;85.55
61394;BME280;48555;50.952;-0.120;2023-09-12T07:11:29;100842.19;;;21.25;85.19
61394;BME280;48555;50.952;-0.120;2023-09-12T07:13:55;100853.94;;;21.30;85.27
61394;BME280;48555;50.952;-0.120;2023-09-12T07:16:20;100863.91;;;21.37;85.20
61394;BME280;48555;50.952;-0.120;2023-09-12T07:18:45;100873.53;;;21.38;85.43
61394;BME280;48555;50.952;-0.120;2023-09-12T07:21:12;100868.03;;;21.39;85.02
61394;BME280;48555;50.952;-0.120;2023-09-12T07:23:37;100855.59;;;21.31;84.88
61394;BME280;48555;50.952;-0.120;2023-09-12T07:26:03;100879.31;;;21.41;84.73
61394;BME280;48555;50.952;-0.120;2023-09-12T07:28:30;100881.44;;;21.46;84.88
61394;BME280;48555;50.952;-0.120;2023-09-12T07:30:56;100874.47;;;21.45;84.68
61394;BME280;48555;50.952;-0.120;2023-09-12T07:33:22;100887.25;;;21.49;84.37
61394;BME280;48555;50.952;-0.120;2023-09-12T07:35:48;100892.84;;;21.54;84.64
61394;BME280;48555;50.952;-0.120;2023-09-12T07:38:13;100883.88;;;21.55;84.29
61394;BME280;48555;50.952;-0.120;2023-09-12T07:40:42;100885.53;;;21.57;84.50
61394;BME280;48555;50.952;-0.120;2023-09-12T07:43:07;100892.81;;;21.63;84.31
61394;BME280;48555;50.952;-0.120;2023-09-12T07:45:34;100885.44;;;21.65;84.25
61394;BME280;48555;50.952;-0.120;2023-09-12T07:48:05;100894.75;;;21.69;84.01
61394;BME280;48555;50.952;-0.120;2023-09-12T07:50:31;100882.63;;;21.66;83.87
61394;BME280;48555;50.952;-0.120;2023-09-12T07:52:56;100879.31;;;21.64;83.86
61394;BME280;48555;50.952;-0.120;2023-09-12T07:55:21;100892.25;;;21.67;83.88
61394;BME280;48555;50.952;-0.120;2023-09-12T07:57:47;100891.25;;;21.68;83.83
61394;BME280;48555;50.952;-0.120;2023-09-12T08:00:12;100890.59;;;21.66;83.98
61394;BME280;48555;50.952;-0.120;2023-09-12T08:02:38;100895.41;;;21.71;84.09
61394;BME280;48555;50.952;-0.120;2023-09-12T08:05:04;100902.19;;;21.73;84.19
61394;BME280;48555;50.952;-0.120;2023-09-12T08:07:30;100887.22;;;21.72;83.99
61394;BME280;48555;50.952;-0.120;2023-09-12T08:09:57;100897.44;;;21.84;84.10
61394;BME280;48555;50.952;-0.120;2023-09-12T08:12:23;100895.44;;;21.86;84.30
61394;BME280;48555;50.952;-0.120;2023-09-12T08:14:49;100892.06;;;21.92;84.44
61394;BME280;48555;50.952;-0.120;2023-09-12T08:17:15;100894.16;;;21.96;84.24
61394;BME280;48555;50.952;-0.120;2023-09-12T08:19:41;100900.44;;;22.04;84.29
61394;BME280;48555;50.952;-0.120;2023-09-12T08:22:08;100899.88;;;22.08;84.36
61394;BME280;48555;50.952;-0.120;2023-09-12T08:24:34;100890.53;;;22.12;84.38
61394;BME280;48555;50.952;-0.120;2023-09-12T08:27:00;100899.09;;;22.22;84.46
61394;BME280;48555;50.952;-0.120;2023-09-12T08:29:28;100897.00;;;22.33;84.20
61394;BME280;48555;50.952;-0.120;2023-09-12T08:31:53;100898.38;;;22.43;83.88
61394;BME280;48555;50.952;-0.120;2023-09-12T08:34:20;100900.94;;;22.52;83.65
61394;BME280;48555;50.952;-0.120;2023-09-12T08:36:45;100901.50;;;22.62;83.09
61394;BME280;48555;50.952;-0.120;2023-09-12T08:39:14;100904.88;;;22.71;82.89
61394;BME280;48555;50.952;-0.120;2023-09-12T08:41:40;100909.28;;;22.78;82.64
61394;BME280;48555;50.952;-0.120;2023-09-12T08:44:06;100901.38;;;22.85;82.36
61394;BME280;48555;50.952;-0.120;2023-09-12T08:46:32;100905.56;;;22.94;82.01
61394;BME280;48555;50.952;-0.120;2023-09-12T08:48:58;100904.50;;;23.03;81.77
61394;BME280;48555;50.952;-0.120;2023-09-12T08:51:23;100896.94;;;23.07;81.41
61394;BME280;48555;50.952;-0.120;2023-09-12T08:53:52;100895.16;;;23.14;81.11
61394;BME280;48555;50.952;-0.120;2023-09-12T08:56:18;100896.91;;;23.22;80.85
61394;BME280;48555;50.952;-0.120;2023-09-12T08:58:44;100901.28;;;23.29;80.59
61394;BME280;48555;50.952;-0.120;2023-09-12T09:01:13;100894.19;;;23.37;80.22
61394;BME280;48555;50.952;-0.120;2023-09-12T09:03:42;100889.94;;;23.42;80.05
61394;BME280;48555;50.952;-0.120;2023-09-12T09:06:09;100896.22;;;23.56;79.52
61394;BME280;48555;50.952;-0.120;2023-09-12T09:08:36;100889.09;;;23.63;79.27
61394;BME280;48555;50.952;-0.120;2023-09-12T09:11:02;100893.50;;;23.71;78.84
61394;BME280;48555;50.952;-0.120;2023-09-12T09:13:28;100898.25;;;23.75;78.54
61394;BME280;48555;50.952;-0.120;2023-09-12T09:18:59;100903.66;;;23.82;77.68
61394;BME280;48555;50.952;-0.120;2023-09-12T09:21:32;100910.84;;;23.82;77.08
61394;BME280;48555;50.952;-0.120;2023-09-12T09:24:04;100908.81;;;23.84;76.52
61394;BME280;48555;50.952;-0.120;2023-09-12T09:26:48;100904.28;;;23.84;76.44
61394;BME280;48555;50.952;-0.120;2023-09-12T09:29:15;100908.22;;;23.88;76.16
61394;BME280;48555;50.952;-0.120;2023-09-12T09:31:42;100902.69;;;23.90;75.96
61394;BME280;48555;50.952;-0.120;2023-09-12T09:34:15;100903.13;;;23.93;75.60
61394;BME280;48555;50.952;-0.120;2023-09-12T09:36:47;100900.06;;;23.96;75.17
61394;BME280;48555;50.952;-0.120;2023-09-12T09:39:13;100898.84;;;23.99;75.13
61394;BME280;48555;50.952;-0.120;2023-09-12T09:41:39;100909.16;;;24.02;74.91
61394;BME280;48555;50.952;-0.120;2023-09-12T09:44:07;100901.78;;;24.04;74.67
61394;BME280;48555;50.952;-0.120;2023-09-12T09:46:32;100905.09;;;24.06;74.13
61394;BME280;48555;50.952;-0.120;2023-09-12T09:48:58;100903.03;;;24.08;74.18
61394;BME280;48555;50.952;-0.120;2023-09-12T09:51:25;100901.00;;;24.10;73.69
61394;BME280;48555;50.952;-0.120;2023-09-12T09:53:53;100900.38;;;24.15;73.65
61394;BME280;48555;50.952;-0.120;2023-09-12T09:56:23;100895.06;;;24.15;73.21
61394;BME280;48555;50.952;-0.120;2023-09-12T09:58:51;100899.00;;;24.19;72.91
61394;BME280;48555;50.952;-0.120;2023-09-12T10:01:20;100904.38;;;24.25;72.27
61394;BME280;48555;50.952;-0.120;2023-09-12T10:03:47;100892.09;;;24.31;72.17
61394;BME280;48555;50.952;-0.120;2023-09-12T10:06:15;100904.25;;;24.40;72.00
61394;BME280;48555;50.952;-0.120;2023-09-12T10:08:43;100899.63;;;24.49;71.71
61394;BME280;48555;50.952;-0.120;2023-09-12T10:11:09;100904.59;;;24.59;71.55
61394;BME280;48555;50.952;-0.120;2023-09-12T10:13:35;100900.53;;;24.69;71.40
61394;BME280;48555;50.952;-0.120;2023-09-12T10:16:03;100894.00;;;24.79;70.80
61394;BME280;48555;50.952;-0.120;2023-09-12T10:18:33;100911.16;;;24.98;70.31
61394;BME280;48555;50.952;-0.120;2023-09-12T10:21:10;100908.09;;;25.07;69.91
61394;BME280;48555;50.952;-0.120;2023-09-12T10:23:43;100901.78;;;25.15;69.49
61394;BME280;48555;50.952;-0.120;2023-09-12T10:26:13;100903.22;;;25.24;69.01
61394;BME280;48555;50.952;-0.120;2023-09-12T10:28:40;100906.09;;;25.29;68.15
61394;BME280;48555;50.952;-0.120;2023-09-12T10:31:07;100899.34;;;25.33;67.66
61394;BME280;48555;50.952;-0.120;2023-09-12T10:33:33;100903.47;;;25.36;67.66
61394;BME280;48555;50.952;-0.120;2023-09-12T10:36:00;100889.03;;;25.37;67.31
61394;BME280;48555;50.952;-0.120;2023-09-12T10:38:30;100886.78;;;25.34;66.74
61394;BME280;48555;50.952;-0.120;2023-09-12T10:41:00;100898.94;;;25.43;66.45
61394;BME280;48555;50.952;-0.120;2023-09-12T10:43:26;100904.50;;;25.48;66.08
61394;BME280;48555;50.952;-0.120;2023-09-12T10:45:52;100902.63;;;25.55;65.85
61394;BME280;48555;50.952;-0.120;2023-09-12T10:48:18;100894.00;;;25.53;65.50
61394;BME280;48555;50.952;-0.120;2023-09-12T10:50:43;100888.03;;;25.51;64.63
61394;BME280;48555;50.952;-0.120;2023-09-12T10:53:15;100889.06;;;25.57;64.76
61394;BME280;48555;50.952;-0.120;2023-09-12T10:55:41;100887.19;;;25.57;64.19
61394;BME280;48555;50.952;-0.120;2023-09-12T10:58:10;100889.88;;;25.51;64.08
61394;BME280;48555;50.952;-0.120;2023-09-12T11:00:39;100892.56;;;25.51;64.10
61394;BME280;48555;50.952;-0.120;2023-09-12T11:05:54;100885.97;;;25.60;64.19
61394;BME280;48555;50.952;-0.120;2023-09-12T11:08:20;100889.28;;;25.62;63.73
61394;BME280;48555;50.952;-0.120;2023-09-12T11:11:18;100896.69;;;25.67;63.29
61394;BME280;48555;50.952;-0.120;2023-09-12T11:13:47;100889.69;;;25.72;63.34
61394;BME280;48555;50.952;-0.120;2023-09-12T11:16:27;100891.97;;;25.82;63.08
61394;BME280;48555;50.952;-0.120;2023-09-12T11:19:15;100888.47;;;25.95;63.56
61394;BME280;48555;50.952;-0.120;2023-09-12T11:21:46;100886.41;;;26.03;62.97
61394;BME280;48555;50.952;-0.120;2023-09-12T11:24:12;100894.19;;;26.12;62.36
61394;BME280;48555;50.952;-0.120;2023-09-12T11:27:00;100887.19;;;26.11;61.19
61394;BME280;48555;50.952;-0.120;2023-09-12T11:29:36;100883.09;;;26.08;61.34
61394;BME280;48555;50.952;-0.120;2023-09-12T11:32:03;100882.66;;;26.11;61.41
61394;BME280;48555;50.952;-0.120;2023-09-12T11:34:30;100883.91;;;26.15;61.37
61394;BME280;48555;50.952;-0.120;2023-09-12T11:36:59;100879.75;;;26.33;61.29
61394;BME280;48555;50.952;-0.120;2023-09-12T11:39:28;100887.13;;;26.44;60.69
61394;BME280;48555;50.952;-0.120;2023-09-12T11:41:55;100876.00;;;26.40;60.44
61394;BME280;48555;50.952;-0.120;2023-09-12T11:44:21;100878.28;;;26.37;59.19
61394;BME280;48555;50.952;-0.120;2023-09-12T11:46:48;100877.25;;;26.31;58.63
61394;BME280;48555;50.952;-0.120;2023-09-12T11:49:18;100879.53;;;26.27;58.39
61394;BME280;48555;50.952;-0.120;2023-09-12T11:51:50;100881.81;;;26.31;58.83
61394;BME280;48555;50.952;-0.120;2023-09-12T11:54:24;100882.22;;;26.27;59.00
61394;BME280;48555;50.952;-0.120;2023-09-12T11:56:49;100886.31;;;26.37;59.33
61394;BME280;48555;50.952;-0.120;2023-09-12T11:59:21;100882.38;;;26.46;59.90
61394;BME280;48555;50.952;-0.120;2023-09-12T12:01:47;100876.59;;;26.49;59.79
61394;BME280;48555;50.952;-0.120;2023-09-12T12:04:12;100874.75;;;26.49;59.76
61394;BME280;48555;50.952;-0.120;2023-09-12T12:06:38;100873.72;;;26.44;59.35
